Time;durP1;ratioP1;P1;durP2;ratioP2;P2;SDS_P1;SDS_P2;PMS_P1;PMS_P2;Temp;Humidity;BMP_temperature;BMP_pressure;BME280_temperature;BME280_humidity;BME280_pressure;Samples;Min_cycle;Max_cycle;Signal;HPM_P1;HPM_P2
2022/04/13 00:00:25;;;;;;;3.75;2.90;;;23.50;34.60;;;;;;5054491;28;20401;-65
2022/04/13 00:02:51;;;;;;;3.88;2.80;;;23.40;34.60;;;;;;5054448;28;20455;-66
2022/04/13 00:05:17;;;;;;;3.67;2.60;;;23.30;34.60;;;;;;5054344;28;20409;-66
2022/04/13 00:07:42;;;;;;;3.40;2.60;;;23.40;34.80;;;;;;5054031;28;20468;-65
2022/04/13 00:10:08;;;;;;;4.13;2.70;;;23.40;34.80;;;;;;5054099;28;20878;-65
2022/04/13 00:12:34;;;;;;;3.50;2.63;;;23.40;34.70;;;;;;5054176;28;20389;-65
2022/04/13 00:15:02;;;;;;;3.67;2.70;;;23.40;34.70;;;;;;5053940;28;20477;-65
2022/04/13 00:17:28;;;;;;;4.07;2.60;;;23.30;34.60;;;;;;5053018;28;20381;-65
2022/04/13 00:19:54;;;;;;;3.05;2.70;;;23.30;34.80;;;;;;5053698;28;20447;-63
2022/04/13 00:22:19;;;;;;;3.07;2.40;;;23.30;34.90;;;;;;5035658;28;20823;-65
2022/04/13 00:24:45;;;;;;;3.65;2.42;;;23.20;34.70;;;;;;5053698;28;20425;-64
2022/04/13 00:27:10;;;;;;;3.63;2.53;;;23.30;34.70;;;;;;5054712;28;20396;-65
2022/04/13 00:29:36;;;;;;;3.27;2.40;;;23.30;34.70;;;;;;5054528;28;20460;-66
2022/04/13 00:32:03;;;;;;;4.13;2.58;;;23.20;34.70;;;;;;5054103;28;20378;-65
2022/04/13 00:34:29;;;;;;;4.45;2.80;;;23.20;34.80;;;;;;5054242;28;20404;-65
2022/04/13 00:36:57;;;;;;;3.80;2.80;;;23.20;34.90;;;;;;5053447;28;20389;-65
2022/04/13 00:39:23;;;;;;;3.15;2.40;;;23.20;34.90;;;;;;5053739;28;20960;-65
2022/04/13 00:41:59;;;;;;;3.20;2.30;;;23.20;34.80;;;;;;5052076;28;20761;-64
2022/04/13 00:44:27;;;;;;;3.83;2.60;;;23.20;34.80;;;;;;5053860;28;20477;-65
2022/04/13 00:46:54;;;;;;;3.80;2.60;;;23.10;34.70;;;;;;5053409;28;20433;-65
2022/04/13 00:49:20;;;;;;;3.63;2.60;;;23.10;34.80;;;;;;5053688;28;20421;-63
2022/04/13 00:51:45;;;;;;;4.20;2.80;;;23.10;34.90;;;;;;5053609;28;20881;-65
2022/04/13 00:54:13;;;;;;;2.92;2.55;;;23.10;34.90;;;;;;5035654;28;20402;-63
2022/04/13 00:56:41;;;;;;;3.67;2.55;;;23.10;34.80;;;;;;5053425;28;20796;-65
2022/04/13 00:59:12;;;;;;;3.30;2.40;;;23.20;34.80;;;;;;5053622;28;20757;-65
2022/04/13 01:01:42;;;;;;;3.22;2.40;;;23.10;34.80;;;;;;5053452;28;20389;-65
2022/04/13 01:04:11;;;;;;;3.47;2.47;;;23.10;34.80;;;;;;5053303;28;20487;-66
2022/04/13 01:06:39;;;;;;;3.38;2.40;;;23.00;34.90;;;;;;5053127;28;20444;-65
2022/04/13 01:09:05;;;;;;;2.53;2.10;;;23.00;34.90;;;;;;5053179;28;20476;-65
2022/04/13 01:11:31;;;;;;;2.70;2.33;;;23.10;34.90;;;;;;5053155;28;20869;-65
2022/04/13 01:13:57;;;;;;;3.77;2.40;;;23.10;34.90;;;;;;5052664;28;20382;-65
2022/04/13 01:16:27;;;;;;;3.60;2.70;;;23.00;34.80;;;;;;5053094;28;20389;-65
2022/04/13 01:18:54;;;;;;;4.05;2.47;;;23.00;34.80;;;;;;5052920;28;20402;-65
2022/04/13 01:21:42;;;;;;;3.00;2.50;;;23.00;35.00;;;;;;5053198;28;20409;-66
2022/04/13 01:24:07;;;;;;;2.83;2.30;;;23.00;35.00;;;;;;5052749;28;20738;-65
2022/04/13 01:26:33;;;;;;;3.00;2.50;;;23.00;34.90;;;;;;5052781;28;20393;-66
2022/04/13 01:28:59;;;;;;;3.65;2.42;;;23.00;34.90;;;;;;5052567;28;20417;-65
2022/04/13 01:31:24;;;;;;;3.37;2.33;;;23.00;34.90;;;;;;5052781;28;20428;-65
2022/04/13 01:33:50;;;;;;;3.22;2.40;;;23.00;34.80;;;;;;5052529;28;20727;-65
2022/04/13 01:36:16;;;;;;;2.63;2.10;;;23.10;34.80;;;;;;5052440;28;20464;-65
2022/04/13 01:38:42;;;;;;;3.10;2.40;;;23.10;34.80;;;;;;5050547;28;20394;-65
2022/04/13 01:41:07;;;;;;;3.20;2.33;;;23.10;34.70;;;;;;5052734;28;20754;-65
2022/04/13 01:43:33;;;;;;;3.25;2.35;;;23.10;34.70;;;;;;5052462;28;20398;-65
2022/04/13 01:45:58;;;;;;;3.67;2.37;;;23.10;34.60;;;;;;5051816;28;20401;-65
2022/04/13 01:48:24;;;;;;;3.25;2.28;;;23.10;34.60;;;;;;5034660;28;20459;-65
2022/04/13 01:50:50;;;;;;;3.65;2.38;;;23.10;34.60;;;;;;5051070;28;20397;-66
2022/04/13 01:53:16;;;;;;;4.28;2.40;;;23.10;34.60;;;;;;5052467;28;20451;-65
2022/04/13 01:55:42;;;;;;;3.78;2.40;;;23.10;34.60;;;;;;5052258;28;20758;-65
2022/04/13 01:58:08;;;;;;;2.90;2.20;;;23.10;34.50;;;;;;5051874;28;20390;-66
2022/04/13 02:00:34;;;;;;;3.20;2.30;;;23.10;34.50;;;;;;5052547;28;20393;-65
2022/04/13 02:02:59;;;;;;;2.70;2.20;;;23.20;34.50;;;;;;5052193;28;20440;-66
2022/04/13 02:05:25;;;;;;;2.88;2.30;;;23.10;34.50;;;;;;5052221;28;20393;-66
2022/04/13 02:07:51;;;;;;;2.80;2.35;;;23.10;34.50;;;;;;5051802;28;20479;-65
2022/04/13 02:10:18;;;;;;;3.00;2.15;;;23.20;34.50;;;;;;5051726;28;20417;-65
2022/04/13 02:12:44;;;;;;;3.33;2.20;;;23.10;34.50;;;;;;5052428;28;20443;-66
2022/04/13 02:15:10;;;;;;;3.20;2.30;;;23.10;34.50;;;;;;5052134;28;20385;-66
2022/04/13 02:17:38;;;;;;;2.83;2.25;;;23.10;34.50;;;;;;5051855;28;20413;-65
2022/04/13 02:20:08;;;;;;;2.85;2.20;;;23.10;34.40;;;;;;5051722;28;20408;-65
2022/04/13 02:22:34;;;;;;;3.05;2.22;;;23.10;34.40;;;;;;5051859;28;20969;-65
2022/04/13 02:25:06;;;;;;;2.45;2.25;;;23.20;34.40;;;;;;5051811;28;20493;-67
2022/04/13 02:27:32;;;;;;;3.03;2.17;;;23.10;34.40;;;;;;5051843;28;20435;-65
2022/04/13 02:29:57;;;;;;;2.67;2.20;;;23.20;34.40;;;;;;5051183;28;20924;-65
2022/04/13 02:32:23;;;;;;;2.88;1.90;;;23.20;34.40;;;;;;5050466;28;20437;-65
2022/04/13 02:34:49;;;;;;;3.08;2.10;;;23.10;34.40;;;;;;5051727;28;20428;-65
2022/04/13 02:37:16;;;;;;;2.80;2.20;;;23.10;34.60;;;;;;5051557;28;20723;-65
2022/04/13 02:39:44;;;;;;;2.90;2.10;;;23.00;34.50;;;;;;5050928;28;20396;-65
2022/04/13 02:42:14;;;;;;;4.40;2.20;;;23.00;34.60;;;;;;5051181;28;20386;-65
2022/04/13 02:44:41;;;;;;;2.58;1.90;;;22.90;34.60;;;;;;5051541;28;20420;-65
2022/04/13 02:47:07;;;;;;;3.20;2.10;;;23.00;34.70;;;;;;5051389;28;20488;-65
2022/04/13 02:49:32;;;;;;;2.60;2.30;;;22.90;34.60;;;;;;5051380;28;20493;-65
2022/04/13 02:51:58;;;;;;;2.93;2.00;;;22.90;34.70;;;;;;5050964;28;20473;-64
2022/04/13 02:54:23;;;;;;;2.58;2.00;;;22.90;34.60;;;;;;5050813;28;20812;-65
2022/04/13 02:56:49;;;;;;;2.60;2.10;;;22.80;34.60;;;;;;5051480;28;20423;-66
2022/04/13 02:59:15;;;;;;;2.85;2.05;;;22.80;34.80;;;;;;5051443;28;20431;-66
2022/04/13 03:01:43;;;;;;;2.73;2.10;;;22.80;34.80;;;;;;5051276;28;20470;-65
2022/04/13 03:04:09;;;;;;;2.65;1.90;;;22.80;34.80;;;;;;5050886;28;20476;-65
2022/04/13 03:06:35;;;;;;;3.30;2.15;;;22.80;34.70;;;;;;5051278;28;20805;-65
2022/04/13 03:09:03;;;;;;;2.38;1.90;;;22.70;34.80;;;;;;5051061;28;20911;-65
2022/04/13 03:11:29;;;;;;;3.33;2.17;;;22.70;34.90;;;;;;5051138;28;20401;-66
2022/04/13 03:13:56;;;;;;;3.30;2.00;;;22.80;34.90;;;;;;5051020;28;20385;-65
2022/04/13 03:16:22;;;;;;;3.70;2.00;;;22.80;35.00;;;;;;5051761;28;20416;-67
2022/04/13 03:18:47;;;;;;;4.30;2.38;;;22.90;35.50;;;;;;5051387;28;20460;-64
2022/04/13 03:21:13;;;;;;;5.28;2.20;;;22.90;35.80;;;;;;5051582;28;20407;-65
2022/04/13 03:23:39;;;;;;;6.05;2.30;;;22.90;35.90;;;;;;5053295;28;20399;-63
2022/04/13 03:26:04;;;;;;;5.03;2.10;;;22.90;36.40;;;;;;5051915;28;20390;-65
2022/04/13 03:28:30;;;;;;;5.32;2.40;;;23.00;36.80;;;;;;5051595;28;20412;-64
2022/04/13 03:30:56;;;;;;;4.57;2.20;;;23.00;36.40;;;;;;5051823;28;20402;-64
2022/04/13 03:33:22;;;;;;;3.20;1.90;;;23.00;36.40;;;;;;5051045;28;20873;-64
2022/04/13 03:35:48;;;;;;;4.53;1.90;;;23.00;36.30;;;;;;5050628;28;20493;-67
2022/04/13 03:38:13;;;;;;;4.03;2.10;;;22.90;36.20;;;;;;5034084;28;20500;-66
2022/04/13 03:40:39;;;;;;;3.20;2.00;;;23.00;36.50;;;;;;5051109;28;20753;-65
2022/04/13 03:43:05;;;;;;;5.47;2.10;;;23.00;36.00;;;;;;5033860;28;20474;-64
2022/04/13 03:45:30;;;;;;;3.55;2.03;;;23.00;36.00;;;;;;5050899;28;20388;-65
2022/04/13 03:47:56;;;;;;;5.32;2.20;;;23.00;36.20;;;;;;5050497;28;20429;-65
2022/04/13 03:50:22;;;;;;;5.05;2.17;;;23.00;36.80;;;;;;5032631;28;20417;-65
2022/04/13 03:52:47;;;;;;;5.53;1.97;;;23.00;37.20;;;;;;5054450;28;20386;-65
2022/04/13 03:55:13;;;;;;;6.57;2.25;;;23.10;37.20;;;;;;5054369;28;20731;-66
2022/04/13 03:57:39;;;;;;;5.37;2.17;;;23.10;36.80;;;;;;5054476;28;20432;-66
2022/04/13 04:00:07;;;;;;;6.55;2.20;;;23.10;36.60;;;;;;5054050;28;20432;-65
2022/04/13 04:02:36;;;;;;;4.05;2.00;;;23.10;36.40;;;;;;5054080;28;20902;-65
2022/04/13 04:05:02;;;;;;;8.27;2.35;;;23.20;35.90;;;;;;5054403;28;20420;-64
2022/04/13 04:07:28;;;;;;;5.82;2.10;;;23.10;36.10;;;;;;5054422;28;20754;-65
2022/04/13 04:09:54;;;;;;;8.27;2.13;;;23.10;35.40;;;;;;5054475;28;20467;-64
2022/04/13 04:12:20;;;;;;;9.25;2.17;;;23.10;35.70;;;;;;5054634;28;20940;-64
2022/04/13 04:14:46;;;;;;;8.27;2.25;;;23.00;36.60;;;;;;5054185;28;20405;-64
2022/04/13 04:17:12;;;;;;;9.15;2.40;;;23.00;36.30;;;;;;5054321;28;20491;-66
2022/04/13 04:19:37;;;;;;;7.40;2.45;;;23.00;36.10;;;;;;5054553;28;20723;-66
2022/04/13 04:22:03;;;;;;;5.20;2.13;;;23.00;34.90;;;;;;5053597;28;20390;-65
2022/04/13 04:24:29;;;;;;;4.18;2.08;;;22.90;35.40;;;;;;5054155;28;20393;-66
2022/04/13 04:26:55;;;;;;;3.00;2.00;;;22.90;35.60;;;;;;5054184;28;20380;-66
2022/04/13 04:29:22;;;;;;;3.67;1.90;;;22.90;35.10;;;;;;5054680;28;20443;-66
2022/04/13 04:31:50;;;;;;;4.00;1.98;;;22.90;34.80;;;;;;5054164;28;20390;-66
2022/04/13 04:34:17;;;;;;;4.82;1.92;;;22.90;34.60;;;;;;5053716;28;20397;-66
2022/04/13 04:36:44;;;;;;;4.63;2.00;;;22.90;34.50;;;;;;5053858;28;20908;-66
2022/04/13 04:39:10;;;;;;;4.50;1.90;;;22.90;34.30;;;;;;5054037;28;20389;-66
2022/04/13 04:41:35;;;;;;;4.47;1.83;;;23.00;34.30;;;;;;5053695;28;20392;-66
2022/04/13 04:44:01;;;;;;;5.78;1.75;;;23.00;34.20;;;;;;5053482;28;20396;-66
2022/04/13 04:46:27;;;;;;;3.35;1.90;;;23.00;34.30;;;;;;5053604;28;20900;-66
2022/04/13 04:48:53;;;;;;;5.57;1.73;;;23.00;34.30;;;;;;5035811;28;20415;-66
2022/04/13 04:51:19;;;;;;;5.53;1.90;;;23.00;34.40;;;;;;5053611;28;20389;-67
2022/04/13 04:53:47;;;;;;;4.85;1.90;;;22.90;34.30;;;;;;5053707;28;20385;-66
2022/04/13 04:56:14;;;;;;;5.00;1.88;;;23.00;34.40;;;;;;5053147;28;20440;-66
2022/04/13 04:58:40;;;;;;;3.63;1.70;;;23.00;34.40;;;;;;5053676;28;20404;-66
2022/04/13 05:01:05;;;;;;;3.03;1.70;;;23.00;34.30;;;;;;5053363;28;20877;-66
2022/04/13 05:03:32;;;;;;;2.80;1.70;;;23.00;34.20;;;;;;5053026;28;20389;-66
2022/04/13 05:05:58;;;;;;;3.30;1.70;;;23.00;34.20;;;;;;5053472;28;20416;-66
2022/04/13 05:08:23;;;;;;;3.75;1.80;;;23.00;34.20;;;;;;5052946;28;20405;-66
2022/04/13 05:10:51;;;;;;;3.00;1.75;;;22.90;34.20;;;;;;5053287;28;20881;-67
2022/04/13 05:13:20;;;;;;;2.72;1.77;;;23.00;34.20;;;;;;5053774;28;20384;-66
2022/04/13 05:15:46;;;;;;;2.70;1.70;;;23.00;34.10;;;;;;5053245;28;20455;-66
2022/04/13 05:18:12;;;;;;;2.60;1.60;;;23.00;34.10;;;;;;5052717;28;20463;-66
2022/04/13 05:20:38;;;;;;;3.03;1.95;;;23.00;34.20;;;;;;5052952;28;20477;-66
2022/04/13 05:23:04;;;;;;;2.53;1.92;;;22.90;34.20;;;;;;5051954;28;20527;-66
2022/04/13 05:25:30;;;;;;;3.40;1.93;;;22.90;34.70;;;;;;5051463;28;20480;-67
2022/04/13 05:27:55;;;;;;;2.78;2.05;;;23.00;35.20;;;;;;5051471;28;20400;-66
2022/04/13 05:30:21;;;;;;;3.60;2.20;;;23.10;35.20;;;;;;5051657;28;20452;-66
2022/04/13 05:32:50;;;;;;;3.22;2.10;;;23.10;34.90;;;;;;5051844;28;20397;-66
2022/04/13 05:35:16;;;;;;;3.35;2.10;;;23.20;35.50;;;;;;5049062;28;20389;-66
2022/04/13 05:37:43;;;;;;;3.22;2.20;;;23.20;35.70;;;;;;5051501;28;20890;-66
2022/04/13 05:40:09;;;;;;;3.70;2.10;;;23.20;35.90;;;;;;5051558;28;20393;-66
2022/04/13 05:42:35;;;;;;;3.13;1.98;;;23.20;35.70;;;;;;5052628;28;20468;-66
2022/04/13 05:45:00;;;;;;;2.60;2.03;;;23.20;35.70;;;;;;5052642;28;20487;-67
2022/04/13 05:47:26;;;;;;;4.03;2.13;;;23.20;35.60;;;;;;5050313;28;20467;-67
2022/04/13 05:49:52;;;;;;;3.23;2.30;;;23.20;35.90;;;;;;5047237;28;20425;-67
2022/04/13 05:52:17;;;;;;;2.60;2.10;;;23.20;35.90;;;;;;5051587;28;20393;-66
2022/04/13 05:54:43;;;;;;;3.40;2.43;;;23.20;35.30;;;;;;5051973;28;20413;-66
2022/04/13 05:57:09;;;;;;;4.20;2.78;;;23.20;35.60;;;;;;5052258;28;20468;-67
2022/04/13 05:59:36;;;;;;;4.10;2.60;;;23.20;36.10;;;;;;5052087;28;20421;-67
2022/04/13 06:02:02;;;;;;;2.97;2.20;;;23.20;35.00;;;;;;5033831;28;20382;-67
2022/04/13 06:04:28;;;;;;;3.10;2.55;;;23.20;35.10;;;;;;5051673;28;20467;-66
2022/04/13 06:06:54;;;;;;;3.83;2.30;;;23.20;34.80;;;;;;5051980;28;20853;-66
2022/04/13 06:09:21;;;;;;;2.95;2.38;;;23.20;34.60;;;;;;5051965;28;20397;-67
2022/04/13 06:11:46;;;;;;;3.13;2.10;;;23.20;34.60;;;;;;5033919;28;20901;-67
2022/04/13 06:14:12;;;;;;;3.50;2.28;;;23.20;34.90;;;;;;5041892;28;20428;-66
2022/04/13 06:16:38;;;;;;;2.90;2.40;;;23.20;34.90;;;;;;5051637;28;20397;-66
2022/04/13 06:19:03;;;;;;;3.00;2.40;;;23.20;34.90;;;;;;5051828;28;20397;-67
2022/04/13 06:21:29;;;;;;;2.90;2.40;;;23.20;35.00;;;;;;5051626;28;20737;-66
2022/04/13 06:23:55;;;;;;;3.53;2.45;;;23.20;35.00;;;;;;5051494;28;20385;-67
2022/04/13 06:26:20;;;;;;;3.90;2.60;;;23.30;35.00;;;;;;5051120;28;20738;-67
2022/04/13 06:28:46;;;;;;;4.25;2.50;;;23.30;34.90;;;;;;5051334;28;20777;-66
2022/04/13 06:31:12;;;;;;;3.28;2.58;;;23.30;34.80;;;;;;5051243;28;20396;-67
2022/04/13 06:33:38;;;;;;;3.67;2.50;;;23.30;34.80;;;;;;5051367;28;20390;-65
2022/04/13 06:36:08;;;;;;;3.33;2.70;;;23.30;34.70;;;;;;5050922;28;20382;-64
2022/04/13 06:38:35;;;;;;;3.65;2.80;;;23.30;34.60;;;;;;5048607;28;20420;-67
2022/04/13 06:41:01;;;;;;;3.85;3.05;;;23.30;34.60;;;;;;5059538;28;20397;-66
2022/04/13 06:43:26;;;;;;;3.50;2.70;;;23.30;35.00;;;;;;5050615;28;20397;-66
2022/04/13 06:45:53;;;;;;;3.58;2.83;;;23.30;34.80;;;;;;5050698;28;20404;-66
2022/04/13 06:48:21;;;;;;;3.30;2.70;;;23.40;34.80;;;;;;5049351;28;20398;-65
2022/04/13 06:50:47;;;;;;;3.35;2.75;;;23.40;34.80;;;;;;5051178;28;20409;-66
2022/04/13 06:53:14;;;;;;;3.90;2.83;;;23.40;34.70;;;;;;5051347;28;20389;-65
2022/04/13 06:55:41;;;;;;;3.83;2.80;;;23.40;34.70;;;;;;5051189;28;20886;-66
2022/04/13 06:58:07;;;;;;;3.88;2.72;;;23.40;34.60;;;;;;5050406;28;20440;-65
2022/04/13 07:00:34;;;;;;;4.28;2.80;;;23.40;34.60;;;;;;5051127;28;20385;-67
2022/04/13 07:03:00;;;;;;;3.55;2.75;;;23.50;34.80;;;;;;5052067;28;20392;-66
2022/04/13 07:05:26;;;;;;;3.70;2.80;;;23.40;34.60;;;;;;5051071;28;20385;-65
2022/04/13 07:07:52;;;;;;;4.07;2.60;;;23.50;34.70;;;;;;5051027;28;20390;-66
2022/04/13 07:10:18;;;;;;;3.78;2.72;;;23.50;34.60;;;;;;5050352;28;20932;-65
2022/04/13 07:12:43;;;;;;;3.35;2.97;;;23.50;34.60;;;;;;5050987;28;20385;-65
2022/04/13 07:15:09;;;;;;;3.47;2.80;;;23.50;34.60;;;;;;5050919;28;20397;-66
2022/04/13 07:17:35;;;;;;;4.03;2.90;;;23.50;34.50;;;;;;5050917;28;20373;-66
2022/04/13 07:20:01;;;;;;;3.70;2.80;;;23.50;34.60;;;;;;5050408;28;20746;-65
2022/04/13 07:22:27;;;;;;;3.30;2.80;;;23.50;34.50;;;;;;5050527;28;20468;-66
2022/04/13 07:24:52;;;;;;;3.60;2.80;;;23.50;34.40;;;;;;5050811;28;20493;-66
2022/04/13 07:27:18;;;;;;;4.30;2.60;;;23.60;34.50;;;;;;5053925;28;20440;-66
2022/04/13 07:29:44;;;;;;;4.07;2.72;;;23.50;34.40;;;;;;5054771;28;20420;-66
2022/04/13 07:32:10;;;;;;;3.80;2.93;;;23.60;34.40;;;;;;5054265;28;20731;-66
2022/04/13 07:34:36;;;;;;;3.60;2.70;;;23.60;34.30;;;;;;5054701;28;20389;-66
2022/04/13 07:37:04;;;;;;;3.25;2.60;;;23.60;34.30;;;;;;5054647;28;20377;-66
2022/04/13 07:39:30;;;;;;;3.50;2.80;;;23.60;34.30;;;;;;5054689;28;20397;-66
2022/04/13 07:41:55;;;;;;;2.75;2.40;;;23.60;34.30;;;;;;5054389;28;20404;-66
2022/04/13 07:44:21;;;;;;;3.00;2.47;;;23.60;34.30;;;;;;5054919;28;21175;-66
2022/04/13 07:46:47;;;;;;;3.33;2.60;;;23.70;34.30;;;;;;5054090;28;20523;-66
2022/04/13 07:49:12;;;;;;;4.18;2.70;;;23.70;34.40;;;;;;5054706;28;20416;-67
2022/04/13 07:51:40;;;;;;;3.33;2.70;;;23.70;34.20;;;;;;5054640;28;20957;-66
2022/04/13 07:54:07;;;;;;;3.45;2.53;;;23.70;34.20;;;;;;5054088;28;20877;-66
2022/04/13 07:56:32;;;;;;;3.58;2.60;;;23.70;34.20;;;;;;5054110;28;20437;-66
2022/04/13 07:58:58;;;;;;;3.33;2.53;;;23.70;34.00;;;;;;5054094;28;20829;-65
2022/04/13 08:01:27;;;;;;;4.30;2.50;;;23.70;34.50;;;;;;5037260;28;20460;-66
2022/04/13 08:03:52;;;;;;;3.55;2.40;;;23.70;35.10;;;;;;5037815;28;20928;-65
2022/04/13 08:06:18;;;;;;;3.23;2.43;;;23.80;34.90;;;;;;5054054;28;20401;-66
2022/04/13 08:08:44;;;;;;;3.92;2.70;;;23.80;34.60;;;;;;5053288;28;20413;-66
2022/04/13 08:11:10;;;;;;;4.10;2.77;;;23.80;34.40;;;;;;5056195;28;20443;-66
2022/04/13 08:13:35;;;;;;;3.72;2.35;;;23.80;34.20;;;;;;5054096;28;20873;-65
2022/04/13 08:16:01;;;;;;;3.43;2.40;;;23.80;34.00;;;;;;5052866;28;20386;-65
2022/04/13 08:18:27;;;;;;;3.17;2.42;;;23.80;34.00;;;;;;5052414;28;20390;-66
2022/04/13 08:20:52;;;;;;;4.10;2.43;;;23.80;33.90;;;;;;5054020;28;20833;-65
2022/04/13 08:23:18;;;;;;;3.15;2.30;;;23.80;33.90;;;;;;5053858;28;20491;-66
2022/04/13 08:25:45;;;;;;;4.23;2.70;;;23.90;33.90;;;;;;5053854;28;20396;-66
2022/04/13 08:28:10;;;;;;;3.60;2.30;;;23.80;34.00;;;;;;5050349;28;20554;-66
2022/04/13 08:30:36;;;;;;;3.60;2.67;;;23.90;33.70;;;;;;5052819;28;20455;-65
2022/04/13 08:33:02;;;;;;;3.80;2.50;;;23.90;33.70;;;;;;5052911;28;20843;-66
2022/04/13 08:35:28;;;;;;;3.63;2.40;;;23.90;33.70;;;;;;5053716;28;20531;-65
2022/04/13 08:37:53;;;;;;;3.40;2.47;;;23.90;33.60;;;;;;5052696;28;20382;-66
2022/04/13 08:40:21;;;;;;;3.13;2.40;;;23.90;33.60;;;;;;5035315;28;20389;-65
2022/04/13 08:43:09;;;;;;;3.22;2.33;;;23.90;33.60;;;;;;5048886;28;20833;-66
2022/04/13 08:45:42;;;;;;;4.28;2.60;;;23.90;33.60;;;;;;5048109;28;20385;-66
2022/04/13 08:48:12;;;;;;;3.22;2.28;;;23.90;33.70;;;;;;5047839;28;20448;-66
2022/04/13 08:50:38;;;;;;;3.45;2.47;;;23.90;33.50;;;;;;5051465;28;20409;-66
2022/04/13 08:53:12;;;;;;;2.97;2.38;;;24.00;33.50;;;;;;5052142;28;20378;-66
2022/04/13 08:55:51;;;;;;;2.92;2.10;;;24.00;33.50;;;;;;5051910;28;20451;-66
2022/04/13 08:59:01;;;;;;;3.47;2.30;;;24.00;33.50;;;;;;5050130;28;20421;-65
2022/04/13 09:01:50;;;;;;;3.50;2.20;;;24.00;33.50;;;;;;5051663;28;20401;-66
2022/04/13 09:04:18;;;;;;;3.38;2.10;;;24.00;33.40;;;;;;5062662;28;20470;-64
2022/04/13 09:06:45;;;;;;;3.60;2.30;;;24.00;33.40;;;;;;5058345;28;20408;-66
2022/04/13 09:09:31;;;;;;;2.83;2.30;;;24.00;34.00;;;;;;5053909;28;20455;-66
2022/04/13 09:11:58;;;;;;;2.67;2.00;;;24.00;33.40;;;;;;5064866;28;20423;-65
2022/04/13 09:14:28;;;;;;;2.58;1.95;;;24.00;33.40;;;;;;5063739;28;20384;-65
2022/04/13 09:16:55;;;;;;;2.88;2.00;;;24.00;33.40;;;;;;5056611;28;20393;-65
2022/04/13 09:19:23;;;;;;;3.13;2.30;;;24.00;33.40;;;;;;5068906;28;20924;-66
2022/04/13 09:21:55;;;;;;;3.00;2.60;;;24.00;33.40;;;;;;5059273;28;20494;-66
2022/04/13 09:24:22;;;;;;;2.50;2.17;;;24.00;33.40;;;;;;5057404;28;20424;-66
2022/04/13 09:26:48;;;;;;;2.40;1.90;;;24.00;33.30;;;;;;5052106;28;20394;-65
2022/04/13 09:29:14;;;;;;;2.30;1.90;;;24.00;33.30;;;;;;5051339;28;20407;-67
2022/04/13 09:31:40;;;;;;;2.70;2.07;;;24.00;33.30;;;;;;5050214;28;20496;-66
2022/04/13 09:34:05;;;;;;;2.30;1.80;;;24.00;33.30;;;;;;5051487;28;20396;-66
2022/04/13 09:36:32;;;;;;;2.30;1.90;;;24.00;33.30;;;;;;5051928;28;20401;-65
2022/04/13 09:38:59;;;;;;;2.65;1.90;;;24.00;33.30;;;;;;5052562;28;20456;-66
2022/04/13 09:41:36;;;;;;;2.90;2.00;;;24.00;33.30;;;;;;5052549;28;20777;-66
2022/04/13 09:44:14;;;;;;;2.40;1.90;;;24.00;33.30;;;;;;5051798;28;20397;-66
2022/04/13 09:46:41;;;;;;;3.30;1.70;;;24.00;33.30;;;;;;5051875;28;20401;-66
2022/04/13 09:49:15;;;;;;;4.57;2.20;;;24.00;33.40;;;;;;5051716;28;20436;-66
2022/04/13 09:51:47;;;;;;;3.13;1.98;;;23.90;33.80;;;;;;5051778;28;20435;-66
2022/04/13 09:54:13;;;;;;;2.65;2.13;;;24.00;33.90;;;;;;5033535;28;20401;-66
2022/04/13 09:56:48;;;;;;;3.50;2.10;;;24.00;33.90;;;;;;5051973;28;20397;-66
2022/04/13 09:59:34;;;;;;;3.92;2.08;;;24.00;34.30;;;;;;5052106;28;20880;-65
2022/04/13 10:02:00;;;;;;;4.50;2.25;;;24.10;34.20;;;;;;5050867;28;20414;-64
2022/04/13 10:04:27;;;;;;;2.83;2.10;;;24.10;34.60;;;;;;5050928;28;20386;-66
2022/04/13 10:06:53;;;;;;;3.85;1.92;;;24.10;34.30;;;;;;5051841;28;20507;-66
2022/04/13 10:09:19;;;;;;;3.60;1.90;;;24.20;34.20;;;;;;5051754;28;20500;-66
2022/04/13 10:12:03;;;;;;;3.20;1.95;;;24.20;34.40;;;;;;5051791;28;20515;-66
2022/04/13 10:14:29;;;;;;;3.05;2.00;;;24.20;34.10;;;;;;5051302;28;20397;-65
2022/04/13 10:17:08;;;;;;;3.50;2.10;;;24.20;34.10;;;;;;5051679;28;20484;-66
2022/04/13 10:19:35;;;;;;;2.03;1.70;;;24.20;34.10;;;;;;5033947;28;20750;-66
2022/04/13 10:22:01;;;;;;;2.55;2.00;;;24.20;33.90;;;;;;5051658;28;20473;-66
2022/04/13 10:24:32;;;;;;;3.22;1.80;;;24.30;34.10;;;;;;5051454;28;20722;-66
2022/04/13 10:27:12;;;;;;;2.10;1.80;;;24.30;33.80;;;;;;5051330;28;20491;-66
2022/04/13 10:29:40;;;;;;;3.00;1.70;;;24.30;33.90;;;;;;5033685;28;20427;-66
2022/04/13 10:32:07;;;;;;;3.40;2.00;;;24.30;33.80;;;;;;5051567;28;20382;-65
2022/04/13 10:34:36;;;;;;;2.83;1.98;;;24.30;33.80;;;;;;5051269;28;20393;-66
2022/04/13 10:37:02;;;;;;;2.88;1.80;;;24.30;33.70;;;;;;5051330;28;20384;-66
2022/04/13 10:39:28;;;;;;;3.20;1.90;;;24.30;33.70;;;;;;5051456;28;20394;-66
2022/04/13 10:41:54;;;;;;;2.75;1.80;;;24.30;33.50;;;;;;5033674;28;20890;-66
2022/04/13 10:44:37;;;;;;;3.08;1.90;;;24.30;33.80;;;;;;5050586;28;20482;-64
2022/04/13 10:47:08;;;;;;;3.08;1.90;;;24.30;33.80;;;;;;5049093;28;20409;-66
2022/04/13 10:49:54;;;;;;;3.55;1.90;;;24.40;34.10;;;;;;5046658;28;20864;-66
2022/04/13 10:52:51;;;;;;;2.80;1.88;;;24.40;34.10;;;;;;5048096;28;20397;-66
2022/04/13 10:55:19;;;;;;;3.88;2.00;;;24.40;34.30;;;;;;5049050;28;20393;-66
2022/04/13 10:58:13;;;;;;;3.08;1.90;;;24.40;34.00;;;;;;5047492;28;20401;-67
2022/04/13 11:00:43;;;;;;;3.38;1.90;;;24.40;34.20;;;;;;5049162;28;20400;-65
2022/04/13 11:03:12;;;;;;;3.72;2.00;;;24.40;34.50;;;;;;5050546;28;20413;-66
2022/04/13 11:05:40;;;;;;;6.10;1.87;;;24.40;34.80;;;;;;5033045;28;20803;-66
2022/04/13 11:08:15;;;;;;;3.83;1.80;;;24.40;34.60;;;;;;5046588;28;20397;-65
2022/04/13 11:10:43;;;;;;;5.97;1.85;;;24.50;34.20;;;;;;5049806;28;20421;-66
2022/04/13 11:13:09;;;;;;;3.45;1.90;;;24.50;33.90;;;;;;5050801;28;20417;-66
2022/04/13 11:15:46;;;;;;;3.75;1.70;;;24.40;34.10;;;;;;5051045;28;20425;-65
2022/04/13 11:18:17;;;;;;;3.35;1.70;;;24.40;33.80;;;;;;5033097;28;20943;-67
2022/04/13 11:21:01;;;;;;;4.28;1.90;;;24.40;33.90;;;;;;5049351;28;20405;-64
2022/04/13 11:23:49;;;;;;;5.60;1.80;;;24.50;34.10;;;;;;5050771;28;20381;-63
2022/04/13 11:26:48;;;;;;;3.45;1.90;;;24.60;33.90;;;;;;5050590;28;20936;-63
2022/04/13 11:29:16;;;;;;;3.50;1.85;;;24.60;33.90;;;;;;5050569;28;20413;-63
2022/04/13 11:32:12;;;;;;;2.90;1.60;;;24.70;33.50;;;;;;5050518;28;20401;-63
2022/04/13 11:34:50;;;;;;;3.30;1.80;;;24.70;33.50;;;;;;5036974;28;20397;-63
2022/04/13 11:37:40;;;;;;;3.25;1.80;;;24.70;33.40;;;;;;5038584;28;20412;-63
2022/04/13 11:40:10;;;;;;;2.40;1.60;;;24.80;33.30;;;;;;5050873;28;20393;-63
2022/04/13 11:42:39;;;;;;;3.90;1.63;;;24.80;33.40;;;;;;5050304;28;20389;-65
2022/04/13 11:45:14;;;;;;;2.95;1.80;;;24.80;33.30;;;;;;5050579;28;20407;-63
2022/04/13 11:47:52;;;;;;;2.72;1.80;;;24.80;33.40;;;;;;5028439;28;20957;-63
2022/04/13 11:50:26;;;;;;;3.15;1.60;;;24.80;33.00;;;;;;5049722;28;20422;-63
2022/04/13 11:52:53;;;;;;;2.75;1.70;;;24.80;33.20;;;;;;5050689;28;20408;-63
2022/04/13 11:55:25;;;;;;;2.58;1.80;;;24.90;33.20;;;;;;5050196;28;20390;-63
2022/04/13 11:58:09;;;;;;;2.42;1.80;;;24.90;33.30;;;;;;5049721;28;20978;-65
2022/04/13 12:01:13;;;;;;;2.65;1.60;;;24.90;33.20;;;;;;5048295;28;20417;-63
2022/04/13 12:03:41;;;;;;;2.97;1.73;;;24.90;33.20;;;;;;5027550;28;21236;-63
2022/04/13 12:06:15;;;;;;;2.75;1.70;;;24.90;33.00;;;;;;5049105;28;20403;-63
2022/04/13 12:08:43;;;;;;;6.65;1.98;;;24.90;33.20;;;;;;5046547;28;20923;-63
2022/04/13 12:11:17;;;;;;;6.13;2.00;;;24.90;33.10;;;;;;5048660;28;20437;-64
2022/04/13 12:13:46;;;;;;;4.80;1.70;;;24.90;33.20;;;;;;5049311;28;20392;-64
2022/04/13 12:16:25;;;;;;;3.05;1.77;;;24.80;33.20;;;;;;5052627;28;20447;-63
2022/04/13 12:18:52;;;;;;;2.80;1.75;;;24.80;33.30;;;;;;5051948;28;20377;-64
2022/04/13 12:21:22;;;;;;;3.35;1.60;;;24.80;33.40;;;;;;5052200;28;20398;-66
2022/04/13 12:23:51;;;;;;;4.72;1.90;;;24.80;33.30;;;;;;5052313;28;20397;-64
2022/04/13 12:26:28;;;;;;;5.63;1.95;;;24.80;33.40;;;;;;5049924;28;20429;-64
2022/04/13 12:28:54;;;;;;;5.30;1.80;;;24.80;33.40;;;;;;5052176;28;20948;-64
2022/04/13 12:31:19;;;;;;;3.75;2.00;;;24.80;33.50;;;;;;5052272;28;20447;-65
2022/04/13 12:33:46;;;;;;;2.92;1.70;;;24.80;33.50;;;;;;5052767;28;20393;-66
2022/04/13 12:36:14;;;;;;;4.80;1.80;;;24.80;33.50;;;;;;5052401;28;20864;-64
2022/04/13 12:38:47;;;;;;;3.92;1.90;;;24.80;33.40;;;;;;5050728;28;20398;-65
2022/04/13 12:41:12;;;;;;;2.70;1.50;;;24.80;33.50;;;;;;5051734;28;20392;-64
2022/04/13 12:43:41;;;;;;;2.80;1.70;;;24.80;33.40;;;;;;5051392;28;20492;-64
2022/04/13 12:46:13;;;;;;;2.83;1.60;;;24.80;33.50;;;;;;5051633;28;20765;-65
2022/04/13 12:48:40;;;;;;;2.90;1.70;;;24.80;33.50;;;;;;5049336;28;20837;-66
2022/04/13 12:51:06;;;;;;;3.13;1.70;;;24.80;33.40;;;;;;5051915;28;20488;-63
2022/04/13 12:53:54;;;;;;;3.40;1.80;;;24.80;33.50;;;;;;5051781;28;20402;-64